Time;durP1;ratioP1;P1;durP2;ratioP2;P2;SDS_P1;SDS_P2;PMS_P1;PMS_P2;Temp;Humidity;BMP_temperature;BMP_pressure;BME280_temperature;BME280_humidity;BME280_pressure;Samples;Min_cycle;Max_cycle;Signal;HPM_P1;HPM_P2
2022/07/21 00:00:25;;;;;;;6.63;4.20;;;20.60;99.90;;;;;;5047889;28;20056;-67
2022/07/21 00:02:52;;;;;;;5.18;4.07;;;20.60;99.90;;;;;;5034877;28;20049;-67
2022/07/21 00:05:19;;;;;;;8.60;5.35;;;20.60;99.90;;;;;;5049392;28;20109;-66
2022/07/21 00:07:46;;;;;;;5.80;4.07;;;20.70;99.90;;;;;;5033235;28;20055;-66
2022/07/21 00:10:13;;;;;;;8.90;4.85;;;20.60;99.90;;;;;;5049759;28;20120;-66
2022/07/21 00:12:40;;;;;;;8.45;4.75;;;20.50;99.90;;;;;;5053578;28;20507;-67
2022/07/21 00:15:07;;;;;;;8.43;4.60;;;20.50;99.90;;;;;;5039135;28;20076;-66
2022/07/21 00:17:34;;;;;;;6.07;4.20;;;20.50;99.90;;;;;;5054464;28;20037;-66
2022/07/21 00:20:01;;;;;;;8.02;4.82;;;20.50;99.90;;;;;;5036354;28;20053;-67
2022/07/21 00:22:28;;;;;;;11.00;4.68;;;20.50;99.90;;;;;;5032870;28;20505;-66
2022/07/21 00:24:55;;;;;;;8.88;5.00;;;20.50;99.90;;;;;;5053450;28;20071;-66
2022/07/21 00:27:22;;;;;;;10.32;5.05;;;20.50;99.90;;;;;;5053333;28;20492;-66
2022/07/21 00:29:55;;;;;;;6.18;4.78;;;20.50;99.90;;;;;;5052698;28;20457;-67
2022/07/21 00:32:21;;;;;;;7.97;5.45;;;20.40;99.90;;;;;;5056893;28;20052;-67
2022/07/21 00:34:48;;;;;;;7.47;5.00;;;20.30;99.90;;;;;;5054507;28;20041;-67
2022/07/21 00:37:15;;;;;;;9.85;5.20;;;20.10;99.90;;;;;;5054974;28;20068;-67
2022/07/21 00:39:42;;;;;;;5.93;4.45;;;20.00;99.90;;;;;;5052579;28;20048;-67
2022/07/21 00:42:22;;;;;;;8.57;5.78;;;19.80;99.90;;;;;;5032613;28;20053;-68
2022/07/21 00:44:49;;;;;;;10.13;5.65;;;19.80;99.90;;;;;;5034944;28;20053;-67
2022/07/21 00:47:24;;;;;;;8.77;4.90;;;19.60;99.90;;;;;;5052003;28;20473;-68
2022/07/21 00:49:51;;;;;;;6.15;4.97;;;19.50;99.90;;;;;;5036188;28;20132;-67
2022/07/21 00:52:18;;;;;;;15.38;6.47;;;19.40;99.90;;;;;;5055630;28;20059;-67
2022/07/21 00:54:45;;;;;;;10.18;5.00;;;19.40;99.90;;;;;;5020718;28;20049;-67
2022/07/21 00:57:12;;;;;;;8.75;5.10;;;19.40;99.90;;;;;;5052191;28;20044;-67
2022/07/21 00:59:40;;;;;;;9.13;5.38;;;19.30;99.90;;;;;;5050574;28;20053;-67
2022/07/21 01:02:08;;;;;;;7.93;5.30;;;19.30;99.90;;;;;;5053790;28;20120;-66
2022/07/21 01:04:35;;;;;;;9.98;6.32;;;19.30;99.90;;;;;;5055373;28;20055;-68
2022/07/21 01:07:02;;;;;;;9.63;5.28;;;19.30;99.90;;;;;;5053508;28;20456;-66
2022/07/21 01:09:29;;;;;;;11.05;5.18;;;19.30;99.90;;;;;;5039408;28;20052;-66
2022/07/21 01:11:57;;;;;;;7.05;4.35;;;19.30;99.90;;;;;;5032012;28;20053;-67
2022/07/21 01:14:24;;;;;;;8.35;4.93;;;19.30;99.90;;;;;;5026928;28;20041;-66
2022/07/21 01:16:51;;;;;;;7.43;4.90;;;19.30;99.90;;;;;;5055916;28;20051;-66
2022/07/21 01:19:18;;;;;;;7.75;4.95;;;19.30;99.90;;;;;;5052059;28;20045;-67
2022/07/21 01:21:46;;;;;;;9.77;4.32;;;19.30;99.90;;;;;;5050889;28;20488;-67
2022/07/21 01:24:13;;;;;;;10.48;4.82;;;19.20;99.90;;;;;;5053152;28;20060;-67
2022/07/21 01:26:48;;;;;;;12.18;6.03;;;19.20;99.90;;;;;;5051412;28;20564;-67
2022/07/21 01:29:15;;;;;;;7.15;4.72;;;19.20;99.90;;;;;;5034296;28;20049;-67
2022/07/21 01:31:44;;;;;;;7.85;3.92;;;19.20;99.90;;;;;;5050979;28;20511;-66
2022/07/21 01:34:10;;;;;;;11.45;4.70;;;19.30;99.90;;;;;;5053053;28;20051;-67
2022/07/21 01:36:38;;;;;;;6.80;4.25;;;19.20;99.90;;;;;;5051161;28;20056;-67
2022/07/21 01:41:50;;;;;;;10.05;5.00;;;19.20;99.90;;;;;;5048685;28;20049;-68
2022/07/21 01:44:18;;;;;;;6.13;4.50;;;19.10;99.90;;;;;;5050023;28;20091;-68
2022/07/21 01:46:46;;;;;;;7.85;4.07;;;19.10;99.90;;;;;;5052268;28;20053;-68
2022/07/21 01:49:15;;;;;;;10.68;4.57;;;19.10;99.90;;;;;;5051271;28;20401;-67
2022/07/21 01:51:41;;;;;;;8.40;5.13;;;19.10;99.90;;;;;;5050037;28;20048;-66
2022/07/21 01:54:09;;;;;;;5.55;3.90;;;19.10;99.90;;;;;;5053734;28;20744;-66
2022/07/21 01:56:36;;;;;;;8.35;4.40;;;19.10;99.90;;;;;;5027046;28;20041;-67
2022/07/21 01:59:03;;;;;;;5.20;3.55;;;19.10;99.90;;;;;;5017174;28;20060;-66
2022/07/21 02:01:30;;;;;;;5.75;4.10;;;19.10;99.90;;;;;;5050925;28;20084;-66
2022/07/21 02:03:59;;;;;;;5.80;4.65;;;19.10;99.90;;;;;;5034483;28;20053;-66
2022/07/21 02:06:27;;;;;;;7.18;4.57;;;19.00;99.90;;;;;;5049693;28;20059;-67
2022/07/21 02:08:53;;;;;;;6.30;3.65;;;19.10;99.90;;;;;;5062575;28;20056;-67
2022/07/21 02:11:21;;;;;;;7.53;4.22;;;19.10;99.90;;;;;;5033767;28;20107;-66
2022/07/21 02:13:48;;;;;;;7.25;3.90;;;19.00;99.90;;;;;;5052900;28;20060;-67
2022/07/21 02:16:15;;;;;;;8.43;4.07;;;19.00;99.90;;;;;;5050274;28;20049;-66
2022/07/21 02:18:44;;;;;;;7.93;5.18;;;19.00;99.90;;;;;;5052525;28;20160;-67
2022/07/21 02:21:11;;;;;;;5.70;4.07;;;19.00;99.90;;;;;;5050394;28;20041;-67
2022/07/21 02:23:38;;;;;;;7.28;4.68;;;19.00;99.90;;;;;;5050111;28;20044;-66
2022/07/21 02:26:05;;;;;;;10.02;4.47;;;19.00;99.90;;;;;;5033219;28;20052;-66
2022/07/21 02:28:32;;;;;;;7.60;4.15;;;19.00;99.90;;;;;;5049348;28;20492;-68
2022/07/21 02:30:58;;;;;;;7.90;4.80;;;19.00;99.90;;;;;;5050025;28;20040;-68
2022/07/21 02:33:25;;;;;;;8.70;4.40;;;19.00;99.90;;;;;;5050181;28;20085;-67
2022/07/21 02:35:52;;;;;;;6.60;3.50;;;19.00;99.90;;;;;;5049357;28;20045;-66
2022/07/21 02:38:19;;;;;;;5.53;3.70;;;19.00;99.90;;;;;;5049481;28;20048;-66
2022/07/21 02:40:46;;;;;;;10.45;4.00;;;19.00;99.90;;;;;;5049666;28;20045;-66
2022/07/21 02:43:17;;;;;;;8.85;4.70;;;19.00;99.90;;;;;;5051443;28;20485;-66
2022/07/21 02:45:44;;;;;;;8.60;3.95;;;19.00;99.90;;;;;;5031966;28;20151;-67
2022/07/21 02:48:12;;;;;;;6.72;4.35;;;19.10;99.90;;;;;;5050040;28;20644;-66
2022/07/21 02:50:42;;;;;;;8.98;4.00;;;19.00;99.90;;;;;;5050521;28;20048;-67
2022/07/21 02:53:17;;;;;;;7.20;3.85;;;19.10;99.90;;;;;;5033811;28;20455;-67
2022/07/21 02:55:45;;;;;;;7.13;4.20;;;19.10;99.90;;;;;;5049139;28;20052;-66
2022/07/21 02:58:20;;;;;;;5.50;4.22;;;19.10;99.90;;;;;;5032545;28;20095;-67
2022/07/21 03:00:54;;;;;;;8.98;4.68;;;19.10;99.90;;;;;;5044828;28;20068;-67
2022/07/21 03:03:23;;;;;;;9.60;4.10;;;19.10;99.90;;;;;;5050018;28;20061;-67
2022/07/21 03:05:50;;;;;;;8.77;4.93;;;19.10;99.90;;;;;;5051518;28;20055;-67
2022/07/21 03:08:17;;;;;;;9.80;4.28;;;19.10;99.90;;;;;;5049800;28;20404;-67
2022/07/21 03:10:44;;;;;;;6.35;4.68;;;19.10;99.90;;;;;;5034080;28;20049;-67
2022/07/21 03:13:11;;;;;;;10.85;3.95;;;19.10;99.90;;;;;;5051001;28;20049;-66
2022/07/21 03:15:39;;;;;;;7.53;4.18;;;19.20;99.90;;;;;;5017298;28;20053;-67
2022/07/21 03:18:06;;;;;;;7.45;4.30;;;19.10;99.90;;;;;;5051101;28;20136;-67
2022/07/21 03:20:35;;;;;;;7.63;4.47;;;19.10;99.90;;;;;;5053866;28;20420;-67
2022/07/21 03:23:02;;;;;;;11.10;4.30;;;19.10;99.90;;;;;;5033168;28;20045;-67
2022/07/21 03:25:29;;;;;;;11.98;4.65;;;19.10;99.90;;;;;;5050712;28;20148;-67
2022/07/21 03:27:55;;;;;;;7.63;3.83;;;19.00;99.90;;;;;;5049113;28;20095;-67
2022/07/21 03:30:22;;;;;;;7.93;4.28;;;19.00;99.90;;;;;;5035457;28;20045;-67
2022/07/21 03:32:50;;;;;;;8.07;4.28;;;19.00;99.90;;;;;;5029256;28;20041;-66
2022/07/21 03:35:17;;;;;;;7.25;3.78;;;18.90;99.90;;;;;;5048297;28;20045;-66
2022/07/21 03:37:54;;;;;;;13.30;4.65;;;18.90;99.90;;;;;;5029366;28;20155;-66
2022/07/21 03:40:25;;;;;;;6.90;4.00;;;18.90;99.90;;;;;;5048186;28;20071;-67
2022/07/21 03:42:53;;;;;;;8.60;4.38;;;18.90;99.90;;;;;;5032505;28;20054;-67
2022/07/21 03:45:20;;;;;;;9.68;4.68;;;18.90;99.90;;;;;;5047230;28;20051;-69
2022/07/21 03:47:47;;;;;;;6.10;4.32;;;19.00;99.90;;;;;;5053097;28;20055;-67
2022/07/21 03:50:17;;;;;;;8.65;4.45;;;18.90;99.90;;;;;;5052255;28;20049;-67
2022/07/21 03:52:47;;;;;;;7.32;4.38;;;18.90;99.90;;;;;;5054257;28;20041;-66
2022/07/21 03:55:18;;;;;;;9.00;4.85;;;19.00;99.90;;;;;;5036399;28;20405;-66
2022/07/21 03:57:56;;;;;;;9.95;5.05;;;18.90;99.90;;;;;;5053313;28;20052;-67
2022/07/21 04:00:26;;;;;;;11.00;5.15;;;18.90;99.90;;;;;;5053505;28;20057;-67
2022/07/21 04:02:53;;;;;;;9.05;4.60;;;18.90;99.90;;;;;;5037097;28;20102;-66
2022/07/21 04:05:20;;;;;;;8.02;4.68;;;18.90;99.90;;;;;;5051694;28;20041;-66
2022/07/21 04:07:48;;;;;;;8.73;5.55;;;18.90;99.90;;;;;;5035966;28;20141;-66
2022/07/21 04:10:16;;;;;;;10.65;4.75;;;18.90;99.90;;;;;;5051609;28;20396;-67
2022/07/21 04:12:43;;;;;;;9.65;5.32;;;18.90;99.90;;;;;;5055296;28;20060;-66
2022/07/21 04:15:11;;;;;;;8.02;4.10;;;18.90;99.90;;;;;;5051635;28;20048;-67
2022/07/21 04:17:38;;;;;;;6.70;4.03;;;18.90;99.90;;;;;;5035360;28;20179;-66
2022/07/21 04:20:06;;;;;;;7.50;3.80;;;18.90;99.90;;;;;;5051146;28;20040;-67
2022/07/21 04:22:33;;;;;;;10.43;5.10;;;18.90;99.90;;;;;;5052784;28;20053;-67
2022/07/21 04:25:00;;;;;;;11.75;3.88;;;18.90;99.90;;;;;;5049476;28;20041;-67
2022/07/21 04:27:27;;;;;;;7.32;3.40;;;18.80;99.90;;;;;;5057325;28;20052;-66
2022/07/21 04:29:54;;;;;;;7.45;3.83;;;18.80;99.90;;;;;;5051373;28;20045;-67
2022/07/21 04:32:21;;;;;;;7.47;4.07;;;18.80;99.90;;;;;;5054078;28;20053;-67
2022/07/21 04:34:48;;;;;;;8.25;3.90;;;18.80;99.90;;;;;;5051757;28;20067;-67
2022/07/21 04:37:15;;;;;;;7.32;3.40;;;18.80;99.90;;;;;;5051698;28;20083;-67
2022/07/21 04:39:42;;;;;;;7.40;3.25;;;18.80;99.90;;;;;;5052381;28;20496;-68
2022/07/21 04:42:13;;;;;;;8.27;4.45;;;18.80;99.90;;;;;;5052618;28;20045;-67
2022/07/21 04:44:40;;;;;;;7.00;3.53;;;18.80;99.90;;;;;;5050661;28;20460;-67
2022/07/21 04:47:07;;;;;;;5.38;3.22;;;18.90;99.90;;;;;;5053493;28;20045;-67
2022/07/21 04:49:34;;;;;;;8.15;3.08;;;18.90;99.90;;;;;;5051205;28;20484;-67
2022/07/21 04:52:01;;;;;;;6.70;3.47;;;18.90;99.90;;;;;;5033635;28;20096;-67
2022/07/21 04:54:31;;;;;;;6.72;3.33;;;18.90;99.90;;;;;;5054378;28;20508;-67
2022/07/21 04:56:59;;;;;;;7.10;3.17;;;18.90;99.90;;;;;;5050097;28;20041;-66
2022/07/21 04:59:26;;;;;;;7.50;3.63;;;18.90;99.90;;;;;;5051265;28;20053;-67
2022/07/21 05:01:53;;;;;;;8.40;3.58;;;18.90;99.90;;;;;;5051991;28;20045;-66
2022/07/21 05:04:20;;;;;;;5.45;4.03;;;18.90;99.90;;;;;;5022644;28;20056;-66
2022/07/21 05:06:47;;;;;;;6.75;3.00;;;18.90;99.90;;;;;;5035850;28;20063;-66
2022/07/21 05:09:14;;;;;;;7.60;3.58;;;18.90;99.90;;;;;;5053657;28;20498;-67
2022/07/21 05:11:40;;;;;;;6.63;3.20;;;18.90;99.90;;;;;;5052904;28;20049;-67
2022/07/21 05:14:07;;;;;;;8.48;3.83;;;18.90;99.90;;;;;;5056741;28;20075;-68
2022/07/21 05:16:41;;;;;;;6.43;3.58;;;19.00;99.90;;;;;;5040320;28;20057;-67
2022/07/21 05:19:09;;;;;;;8.43;3.00;;;19.00;99.90;;;;;;5032927;28;20049;-67
2022/07/21 05:21:36;;;;;;;5.80;2.95;;;19.10;99.90;;;;;;5034327;28;20372;-66
2022/07/21 05:24:03;;;;;;;7.10;3.75;;;19.10;99.90;;;;;;5034759;28;20045;-67
2022/07/21 05:26:30;;;;;;;9.00;3.00;;;19.10;99.90;;;;;;5055393;28;20539;-67
2022/07/21 05:28:57;;;;;;;4.95;3.25;;;19.10;99.90;;;;;;5051570;28;20049;-66
2022/07/21 05:31:24;;;;;;;12.45;3.42;;;19.10;99.90;;;;;;5054089;28;20080;-66
2022/07/21 05:33:51;;;;;;;5.05;3.03;;;19.20;99.90;;;;;;5051030;28;20048;-67
2022/07/21 05:36:18;;;;;;;6.90;2.95;;;19.20;99.90;;;;;;5050838;28;20140;-68
2022/07/21 05:38:46;;;;;;;7.88;3.00;;;19.20;99.90;;;;;;5052692;28;20049;-67
2022/07/21 05:41:13;;;;;;;6.13;3.08;;;19.10;99.90;;;;;;5052487;28;20055;-70
2022/07/21 05:43:40;;;;;;;8.18;3.25;;;19.20;99.90;;;;;;5051002;28;20056;-67
2022/07/21 05:46:07;;;;;;;7.35;3.05;;;19.30;99.90;;;;;;5051684;28;20064;-69
2022/07/21 05:48:34;;;;;;;6.57;2.88;;;19.30;99.90;;;;;;5049849;28;20377;-66
2022/07/21 05:51:01;;;;;;;8.68;2.90;;;19.40;99.90;;;;;;5033498;28;20075;-66
2022/07/21 05:53:28;;;;;;;4.85;3.20;;;19.50;99.90;;;;;;5050493;28;20352;-69
2022/07/21 05:55:55;;;;;;;8.77;3.58;;;19.50;99.90;;;;;;5022058;28;20377;-66
2022/07/21 05:58:25;;;;;;;8.10;3.13;;;19.60;99.90;;;;;;5051301;28;20377;-67
2022/07/21 06:01:08;;;;;;;8.30;2.92;;;19.70;99.90;;;;;;5052424;28;20055;-67
2022/07/21 06:03:42;;;;;;;4.72;2.83;;;19.70;99.90;;;;;;5050796;28;20060;-67
2022/07/21 06:06:10;;;;;;;5.40;2.58;;;19.70;99.90;;;;;;5035066;28;20060;-67
2022/07/21 06:08:37;;;;;;;117.15;105.45;;;19.80;99.90;;;;;;5052526;28;20049;-67
2022/07/21 06:11:05;;;;;;;13.10;10.38;;;19.90;99.90;;;;;;5050048;28;20041;-66
2022/07/21 06:13:32;;;;;;;11.45;5.03;;;19.90;99.90;;;;;;5057927;28;20519;-69
2022/07/21 06:15:59;;;;;;;7.20;3.53;;;19.90;99.90;;;;;;5049978;28;20375;-69
2022/07/21 06:18:26;;;;;;;9.40;3.65;;;20.00;99.90;;;;;;5050668;28;20159;-66
2022/07/21 06:20:53;;;;;;;7.32;2.90;;;19.90;99.90;;;;;;5054403;28;20045;-70
2022/07/21 06:23:20;;;;;;;7.88;3.35;;;20.00;99.90;;;;;;5050833;28;20041;-69
2022/07/21 06:25:47;;;;;;;7.55;2.92;;;20.00;99.90;;;;;;5030169;28;20054;-74
2022/07/21 06:28:13;;;;;;;9.13;3.78;;;20.10;99.90;;;;;;5050999;28;20121;-65
2022/07/21 06:30:41;;;;;;;13.90;8.40;;;20.10;99.90;;;;;;5032442;28;20365;-70
2022/07/21 06:33:08;;;;;;;6.90;3.50;;;20.10;99.90;;;;;;5054008;28;20049;-70
2022/07/21 06:35:35;;;;;;;8.48;3.70;;;20.20;99.90;;;;;;5034007;28;20044;-70
2022/07/21 06:38:02;;;;;;;9.68;3.30;;;20.30;99.90;;;;;;5033825;28;20125;-66
2022/07/21 06:40:34;;;;;;;7.63;3.47;;;20.40;99.90;;;;;;5051099;28;20048;-69
2022/07/21 06:43:01;;;;;;;9.85;3.45;;;20.40;99.90;;;;;;5051470;28;20135;-69
2022/07/21 06:45:48;;;;;;;10.85;2.90;;;20.40;99.90;;;;;;5051713;28;20114;-66
2022/07/21 06:48:15;;;;;;;7.68;3.00;;;20.50;99.90;;;;;;5049645;28;20056;-68
2022/07/21 06:50:43;;;;;;;9.23;3.70;;;20.60;99.90;;;;;;5049710;28;20049;-66
2022/07/21 06:53:12;;;;;;;6.53;3.40;;;20.70;99.90;;;;;;5049246;28;20080;-67
2022/07/21 06:55:39;;;;;;;7.38;3.70;;;20.70;99.90;;;;;;5052478;28;20057;-66
2022/07/21 06:58:13;;;;;;;10.07;3.90;;;20.80;99.90;;;;;;5042806;28;20052;-66
2022/07/21 07:00:40;;;;;;;9.45;3.63;;;20.80;99.90;;;;;;5048417;28;20115;-67
2022/07/21 07:03:07;;;;;;;12.88;4.50;;;21.00;99.90;;;;;;5048482;28;20115;-68
2022/07/21 07:05:36;;;;;;;8.80;3.90;;;21.10;99.90;;;;;;5048907;28;20148;-66
2022/07/21 07:08:03;;;;;;;7.53;4.30;;;21.20;99.90;;;;;;5034226;28;20055;-72
2022/07/21 07:10:37;;;;;;;10.90;4.20;;;21.30;99.90;;;;;;5036520;28;20037;-69
2022/07/21 07:13:04;;;;;;;9.15;4.22;;;21.40;99.90;;;;;;5029620;28;20049;-71
2022/07/21 07:15:51;;;;;;;13.27;4.72;;;21.40;99.90;;;;;;5044881;28;20098;-71
2022/07/21 07:18:20;;;;;;;10.77;3.55;;;21.50;99.90;;;;;;5035723;28;20072;-71
2022/07/21 07:20:47;;;;;;;9.63;4.00;;;21.50;99.90;;;;;;5048844;28;20048;-70
2022/07/21 07:23:14;;;;;;;8.10;3.80;;;21.70;99.90;;;;;;5050376;28;20049;-68
2022/07/21 07:25:44;;;;;;;6.68;3.10;;;21.70;99.90;;;;;;5050873;28;20136;-72
2022/07/21 07:28:11;;;;;;;9.55;4.63;;;21.90;99.90;;;;;;5048447;28;20378;-70
2022/07/21 07:30:38;;;;;;;9.95;4.38;;;22.00;99.90;;;;;;5049650;28;20045;-68
2022/07/21 07:33:06;;;;;;;10.70;4.47;;;22.20;99.90;;;;;;5035050;28;20120;-70
2022/07/21 07:35:33;;;;;;;8.52;3.75;;;22.20;99.90;;;;;;5032352;28;20052;-65
2022/07/21 07:38:00;;;;;;;8.73;4.93;;;22.30;99.90;;;;;;5049328;28;20037;-65
2022/07/21 07:40:27;;;;;;;9.45;4.25;;;22.10;99.90;;;;;;5033030;28;20561;-64
2022/07/21 07:42:54;;;;;;;11.73;5.82;;;22.00;99.90;;;;;;5049893;28;20118;-72
2022/07/21 07:45:21;;;;;;;9.82;4.38;;;21.90;99.90;;;;;;5049306;28;20140;-73
2022/07/21 07:47:49;;;;;;;12.07;4.75;;;21.90;99.90;;;;;;5048258;28;20041;-69
2022/07/21 07:50:15;;;;;;;30.10;23.80;;;22.00;99.90;;;;;;5052334;28;20063;-79
2022/07/21 07:52:43;;;;;;;10.35;6.15;;;22.00;99.90;;;;;;5050980;28;20052;-75
2022/07/21 07:55:10;;;;;;;11.88;4.72;;;22.10;99.90;;;;;;5055625;28;20041;-71
2022/07/21 07:57:38;;;;;;;11.20;4.13;;;22.00;99.90;;;;;;5034197;28;20048;-74
2022/07/21 08:00:09;;;;;;;7.40;3.88;;;22.00;99.90;;;;;;5049743;28;20208;-71
2022/07/21 08:02:55;;;;;;;10.10;4.72;;;22.00;99.90;;;;;;5023042;28;20078;-74
2022/07/21 08:05:22;;;;;;;8.48;4.63;;;22.00;99.90;;;;;;5050366;28;20116;-74
2022/07/21 08:07:49;;;;;;;9.57;3.92;;;22.00;99.90;;;;;;5050432;28;20110;-74
2022/07/21 08:10:16;;;;;;;12.82;4.53;;;22.10;99.90;;;;;;5049179;28;20461;-74
2022/07/21 08:13:03;;;;;;;8.85;4.47;;;22.20;99.90;;;;;;5049291;28;20041;-74
2022/07/21 08:15:33;;;;;;;5.63;3.67;;;22.40;99.90;;;;;;5049368;28;20072;-74
2022/07/21 08:18:01;;;;;;;15.43;4.90;;;22.50;99.90;;;;;;5049236;28;20121;-73
2022/07/21 08:20:30;;;;;;;5.65;4.25;;;22.40;99.90;;;;;;5049456;28;20122;-73
2022/07/21 08:22:57;;;;;;;9.10;4.10;;;22.50;99.90;;;;;;5049530;28;20045;-74
2022/07/21 08:25:24;;;;;;;9.27;4.35;;;22.50;99.90;;;;;;5050017;28;20438;-74
2022/07/21 08:27:51;;;;;;;10.38;4.45;;;22.50;99.90;;;;;;5049385;28;20052;-74
2022/07/21 08:30:18;;;;;;;7.35;4.15;;;22.60;99.90;;;;;;5048582;28;20053;-74
2022/07/21 08:32:50;;;;;;;8.98;4.88;;;22.70;99.90;;;;;;5052824;28;20136;-74
2022/07/21 08:35:17;;;;;;;10.60;3.90;;;22.70;99.90;;;;;;5054247;28;20376;-74
2022/07/21 08:37:52;;;;;;;11.98;4.68;;;22.60;99.90;;;;;;5020069;28;20045;-74
2022/07/21 08:40:19;;;;;;;7.80;3.60;;;22.70;99.90;;;;;;5036778;28;20045;-74
2022/07/21 08:42:46;;;;;;;7.07;4.03;;;22.80;99.90;;;;;;5052977;28;20099;-74
2022/07/21 08:45:15;;;;;;;10.00;4.35;;;22.90;99.90;;;;;;5053416;28;20152;-74
2022/07/21 08:47:44;;;;;;;;;;;22.90;99.90;;;;;;5036886;28;20045;-74
2022/07/21 08:50:11;;;;;;;6.97;4.18;;;23.00;99.90;;;;;;5053957;28;19920;-74
2022/07/21 08:52:38;;;;;;;12.52;4.45;;;23.00;99.90;;;;;;5052734;28;20076;-74
2022/07/21 08:55:05;;;;;;;8.98;4.00;;;23.20;99.90;;;;;;5053698;28;20060;-74
2022/07/21 08:57:32;;;;;;;10.20;4.95;;;23.20;99.90;;;;;;5051886;28;20056;-74
2022/07/21 08:59:59;;;;;;;7.13;4.00;;;23.40;99.90;;;;;;5035079;28;20049;-74
2022/07/21 09:02:31;;;;;;;6.65;3.80;;;23.40;99.90;;;;;;5052201;28;20053;-74
2022/07/21 09:04:58;;;;;;;7.18;3.92;;;23.30;99.90;;;;;;5036688;28;20132;-74
2022/07/21 09:07:25;;;;;;;6.95;4.15;;;23.30;99.90;;;;;;5053335;28;20049;-74
2022/07/21 09:10:00;;;;;;;8.00;3.80;;;23.20;99.90;;;;;;5053453;28;20257;-74
2022/07/21 09:12:27;;;;;;;6.28;3.70;;;23.20;99.90;;;;;;5035850;28;20045;-74
2022/07/21 09:15:14;;;;;;;8.95;4.93;;;23.30;99.90;;;;;;5052053;28;20048;-74
2022/07/21 09:17:41;;;;;;;12.35;4.55;;;23.40;99.90;;;;;;5035292;28;20140;-74
2022/07/21 09:20:28;;;;;;;7.35;4.07;;;23.50;99.90;;;;;;5052298;28;20045;-74
2022/07/21 09:23:02;;;;;;;7.68;4.05;;;23.60;99.90;;;;;;5035628;28;20131;-74
2022/07/21 09:25:38;;;;;;;10.43;4.43;;;23.70;99.90;;;;;;5052502;28;20048;-74
2022/07/21 09:28:15;;;;;;;10.20;4.55;;;23.60;99.90;;;;;;5052315;28;20178;-74
2022/07/21 09:31:08;;;;;;;9.15;4.78;;;23.60;99.90;;;;;;5034504;28;20407;-74
2022/07/21 09:33:38;;;;;;;8.07;4.50;;;23.50;99.90;;;;;;5033396;28;20136;-74
2022/07/21 09:36:09;;;;;;;10.25;4.95;;;23.40;99.90;;;;;;5034111;28;20068;-74
2022/07/21 09:38:47;;;;;;;5.70;4.13;;;23.50;99.90;;;;;;5032469;28;20045;-73
2022/07/21 09:41:16;;;;;;;11.77;4.43;;;23.40;99.90;;;;;;5032634;28;20049;-68
2022/07/21 09:43:45;;;;;;;9.35;4.70;;;23.40;99.90;;;;;;5048419;28;20057;-62
2022/07/21 09:46:23;;;;;;;6.80;4.50;;;23.30;99.90;;;;;;5040368;28;20053;-68
2022/07/21 09:48:56;;;;;;;11.67;4.70;;;23.50;99.90;;;;;;5051587;28;20056;-68
2022/07/21 09:51:43;;;;;;;7.82;4.25;;;23.50;99.90;;;;;;5051744;28;20045;-67
2022/07/21 09:54:11;;;;;;;9.68;4.97;;;23.40;99.90;;;;;;5052791;28;20049;-68
2022/07/21 09:56:40;;;;;;;7.53;4.63;;;23.40;99.90;;;;;;5035268;28;20128;-68
2022/07/21 09:59:09;;;;;;;5.70;4.10;;;23.50;99.90;;;;;;5035169;28;20151;-68
2022/07/21 10:01:36;;;;;;;7.75;4.32;;;23.60;99.90;;;;;;5034841;28;20144;-68
2022/07/21 10:04:03;;;;;;;14.85;5.50;;;23.60;99.90;;;;;;5034818;28;20095;-68
2022/07/21 10:06:35;;;;;;;12.95;4.85;;;23.60;99.90;;;;;;5035292;28;20048;-68
2022/07/21 10:09:04;;;;;;;6.85;4.28;;;23.60;99.90;;;;;;5035401;28;20072;-68
2022/07/21 10:11:31;;;;;;;9.02;4.70;;;23.70;99.90;;;;;;5035167;28;20049;-68
2022/07/21 10:13:58;;;;;;;10.93;4.90;;;23.70;99.90;;;;;;5034591;28;20140;-68
2022/07/21 10:16:25;;;;;;;7.72;4.65;;;23.70;99.90;;;;;;5050701;28;20057;-68
2022/07/21 10:19:04;;;;;;;9.98;5.25;;;23.80;99.90;;;;;;5035027;28;20053;-67
2022/07/21 10:22:02;;;;;;;8.82;5.10;;;23.80;99.90;;;;;;5051449;28;20053;-68
2022/07/21 10:24:29;;;;;;;10.45;4.80;;;23.80;99.90;;;;;;5052145;28;20048;-68
2022/07/21 10:27:12;;;;;;;7.07;4.72;;;23.90;99.90;;;;;;5018182;28;20095;-68
2022/07/21 10:29:48;;;;;;;9.05;4.40;;;23.80;99.90;;;;;;5052185;28;20048;-68
2022/07/21 10:32:16;;;;;;;7.32;4.03;;;23.90;99.90;;;;;;5051112;28;20148;-68
2022/07/21 10:34:43;;;;;;;11.13;4.72;;;24.10;99.90;;;;;;5050949;28;20079;-67
2022/07/21 10:37:10;;;;;;;6.65;4.13;;;24.10;99.90;;;;;;5034589;28;20227;-67
2022/07/21 10:39:38;;;;;;;10.13;4.65;;;24.10;99.90;;;;;;5049772;28;20540;-68
2022/07/21 10:42:15;;;;;;;9.27;4.93;;;24.20;99.90;;;;;;5050035;28;20053;-69
2022/07/21 10:44:44;;;;;;;38.85;34.88;;;24.50;99.90;;;;;;5057158;28;20055;-75
2022/07/21 10:47:11;;;;;;;9.57;8.57;;;24.80;99.90;;;;;;5053124;28;20434;-71
2022/07/21 10:49:41;;;;;;;10.73;6.70;;;25.10;99.90;;;;;;5056590;28;20048;-76
2022/07/21 10:52:39;;;;;;;6.07;4.68;;;25.20;99.90;;;;;;5052387;28;20048;-67
2022/07/21 10:55:28;;;;;;;7.40;4.20;;;25.30;99.90;;;;;;5055310;28;20516;-65
2022/07/21 10:58:20;;;;;;;7.50;4.45;;;25.30;99.90;;;;;;5051056;28;20051;-64
2022/07/21 11:00:54;;;;;;;6.07;4.03;;;25.30;99.90;;;;;;5043390;28;20056;-67
2022/07/21 11:03:26;;;;;;;10.07;4.55;;;25.50;99.90;;;;;;5051824;28;20123;-68
2022/07/21 11:06:05;;;;;;;5.90;4.43;;;25.60;99.90;;;;;;5050765;28;20179;-70
2022/07/21 11:08:33;;;;;;;6.32;4.03;;;25.80;99.90;;;;;;5049711;28;20045;-78
2022/07/21 11:11:11;;;;;;;6.95;4.95;;;25.80;99.90;;;;;;5049261;28;20048;-70
2022/07/21 11:14:17;;;;;;;6.28;4.90;;;25.70;98.80;;;;;;5049495;28;20061;-72
2022/07/21 11:19:35;;;;;;;6.03;3.72;;;25.80;98.80;;;;;;5053206;28;20045;-74
2022/07/21 11:22:06;;;;;;;10.25;4.78;;;26.00;98.70;;;;;;5049772;28;20041;-74
2022/07/21 11:24:33;;;;;;;7.13;4.80;;;26.10;98.00;;;;;;5049300;28;20357;-78
2022/07/21 11:27:05;;;;;;;5.72;4.13;;;26.30;98.20;;;;;;5049479;28;20057;-66
2022/07/21 11:29:33;;;;;;;9.55;5.78;;;26.60;98.00;;;;;;5033418;28;20052;-73
2022/07/21 11:32:03;;;;;;;8.82;4.20;;;26.60;96.60;;;;;;5032981;28;20049;-69
2022/07/21 11:34:41;;;;;;;8.25;4.93;;;26.40;96.30;;;;;;5033614;28;20049;-72
2022/07/21 11:37:09;;;;;;;6.95;4.53;;;26.30;96.50;;;;;;5022146;28;20403;-72
2022/07/21 11:39:56;;;;;;;7.85;4.82;;;26.40;96.60;;;;;;5048312;28;20076;-65
2022/07/21 11:42:24;;;;;;;21.90;18.30;;;26.40;96.30;;;;;;5035599;28;20045;-66
2022/07/21 11:44:55;;;;;;;10.38;8.13;;;26.50;96.10;;;;;;5029312;28;20042;-66
2022/07/21 11:47:25;;;;;;;9.18;6.78;;;26.70;95.70;;;;;;5029990;28;20046;-66
2022/07/21 11:49:57;;;;;;;8.55;5.53;;;26.90;96.10;;;;;;5052281;28;20084;-74
2022/07/21 11:52:29;;;;;;;6.15;4.72;;;26.90;93.80;;;;;;5050369;28;20049;-78
2022/07/21 11:54:56;;;;;;;6.97;5.32;;;26.80;94.10;;;;;;5032698;28;20056;-72
2022/07/21 11:57:23;;;;;;;8.70;4.97;;;26.70;94.60;;;;;;5049997;28;20140;-70
2022/07/21 11:59:50;;;;;;;6.90;4.40;;;26.80;94.70;;;;;;5032742;28;20045;-71
2022/07/21 12:02:22;;;;;;;12.55;4.53;;;27.00;94.70;;;;;;5049445;28;20068;-76
2022/07/21 12:04:56;;;;;;;7.10;4.40;;;27.10;93.50;;;;;;5048951;28;20583;-74
2022/07/21 12:07:27;;;;;;;4.97;4.32;;;27.10;93.20;;;;;;5035076;28;20168;-73
2022/07/21 12:10:01;;;;;;;7.95;4.97;;;27.20;93.10;;;;;;5054591;28;20056;-75
2022/07/21 12:12:39;;;;;;;8.18;5.90;;;27.40;92.50;;;;;;5056222;28;20084;-75
2022/07/21 12:15:20;;;;;;;7.63;5.20;;;27.40;91.90;;;;;;5052841;28;20400;-69
2022/07/21 12:17:48;;;;;;;6.72;4.45;;;27.40;92.30;;;;;;5026738;28;20493;-74
2022/07/21 12:20:36;;;;;;;6.28;5.10;;;27.40;91.70;;;;;;5053696;28;20114;-81
2022/07/21 12:23:27;;;;;;;8.52;6.15;;;27.30;91.50;;;;;;5056269;28;20041;-68
2022/07/21 12:25:56;;;;;;;18.50;16.70;;;27.20;91.60;;;;;;5050152;28;20510;-68
2022/07/21 12:28:44;;;;;;;20.23;12.68;;;27.20;92.00;;;;;;5050534;28;20588;-81
2022/07/21 12:31:14;;;;;;;8.13;5.32;;;27.20;91.60;;;;;;5050416;28;20063;-74
2022/07/21 12:33:41;;;;;;;7.13;5.05;;;27.20;91.40;;;;;;5054873;28;20423;-76
2022/07/21 12:36:28;;;;;;;8.38;5.18;;;27.30;91.60;;;;;;5035556;28;20056;-78
2022/07/21 12:38:55;;;;;;;9.23;5.20;;;27.50;91.10;;;;;;5036627;28;20395;-79
2022/07/21 12:41:24;;;;;;;8.68;5.10;;;27.40;90.70;;;;;;5031893;28;20504;-74
2022/07/21 12:43:54;;;;;;;10.27;4.93;;;27.40;91.00;;;;;;5040833;28;20119;-77
2022/07/21 12:46:33;;;;;;;8.15;5.00;;;27.60;90.50;;;;;;5051223;28;20115;-81
2022/07/21 12:49:05;;;;;;;12.60;5.95;;;27.50;88.60;;;;;;5052558;28;20464;-78
2022/07/21 12:51:39;;;;;;;7.95;5.40;;;27.30;89.80;;;;;;5037586;28;20124;-68
2022/07/21 12:54:06;;;;;;;8.98;4.63;;;27.30;90.30;;;;;;5051756;28;20384;-69
2022/07/21 12:56:34;;;;;;;8.40;5.47;;;27.20;90.00;;;;;;5052508;28;20051;-71
2022/07/21 12:59:01;;;;;;;7.40;5.00;;;27.20;90.20;;;;;;5053844;28;20072;-70
2022/07/21 13:01:28;;;;;;;7.47;4.72;;;26.90;90.20;;;;;;5051972;28;20057;-69
2022/07/21 13:03:55;;;;;;;8.18;5.57;;;26.80;90.60;;;;;;5051836;28;20548;-75